sensor_id;sensor_type;location;lat;lon;timestamp;P1;durP1;ratioP1;P2;durP2;ratioP2
69953;SDS011;57276;51.364;12.376;2023-04-24T00:00:07;3.20;;;1.30;;
69953;SDS011;57276;51.364;12.376;2023-04-24T00:06:13;3.42;;;1.40;;
69953;SDS011;57276;51.364;12.376;2023-04-24T00:12:15;3.40;;;1.47;;
69953;SDS011;57276;51.364;12.376;2023-04-24T00:18:16;3.72;;;1.70;;
69953;SDS011;57276;51.364;12.376;2023-04-24T00:24:18;3.50;;;1.50;;
69953;SDS011;57276;51.364;12.376;2023-04-24T00:30:19;3.60;;;1.40;;
69953;SDS011;57276;51.364;12.376;2023-04-24T00:36:21;4.00;;;1.60;;
69953;SDS011;57276;51.364;12.376;2023-04-24T00:42:24;3.83;;;1.90;;
69953;SDS011;57276;51.364;12.376;2023-04-24T00:48:26;4.53;;;1.85;;
69953;SDS011;57276;51.364;12.376;2023-04-24T00:54:28;4.05;;;1.52;;
69953;SDS011;57276;51.364;12.376;2023-04-24T01:00:30;5.00;;;1.50;;
69953;SDS011;57276;51.364;12.376;2023-04-24T01:06:32;3.15;;;1.30;;
69953;SDS011;57276;51.364;12.376;2023-04-24T01:12:34;3.23;;;1.27;;
69953;SDS011;57276;51.364;12.376;2023-04-24T01:18:35;3.20;;;1.30;;
69953;SDS011;57276;51.364;12.376;2023-04-24T01:24:37;3.75;;;1.20;;
69953;SDS011;57276;51.364;12.376;2023-04-24T01:30:38;3.07;;;1.20;;
69953;SDS011;57276;51.364;12.376;2023-04-24T01:36:40;3.20;;;1.20;;
69953;SDS011;57276;51.364;12.376;2023-04-24T01:42:43;4.43;;;0.90;;
69953;SDS011;57276;51.364;12.376;2023-04-24T01:48:45;2.72;;;0.88;;
69953;SDS011;57276;51.364;12.376;2023-04-24T01:54:46;4.38;;;0.95;;
69953;SDS011;57276;51.364;12.376;2023-04-24T02:00:48;4.40;;;1.00;;
69953;SDS011;57276;51.364;12.376;2023-04-24T02:06:50;2.72;;;0.90;;
69953;SDS011;57276;51.364;12.376;2023-04-24T02:12:52;5.43;;;1.50;;
69953;SDS011;57276;51.364;12.376;2023-04-24T02:18:57;2.80;;;1.10;;
69953;SDS011;57276;51.364;12.376;2023-04-24T02:24:58;2.85;;;1.10;;
69953;SDS011;57276;51.364;12.376;2023-04-24T02:30:59;3.03;;;1.00;;
69953;SDS011;57276;51.364;12.376;2023-04-24T02:37:01;4.07;;;1.20;;
69953;SDS011;57276;51.364;12.376;2023-04-24T02:43:03;3.10;;;0.93;;
69953;SDS011;57276;51.364;12.376;2023-04-24T02:49:04;2.90;;;1.00;;
69953;SDS011;57276;51.364;12.376;2023-04-24T02:55:06;4.20;;;1.35;;
69953;SDS011;57276;51.364;12.376;2023-04-24T03:01:09;3.80;;;1.20;;
69953;SDS011;57276;51.364;12.376;2023-04-24T03:07:18;3.20;;;1.17;;
69953;SDS011;57276;51.364;12.376;2023-04-24T03:13:34;3.27;;;1.10;;
69953;SDS011;57276;51.364;12.376;2023-04-24T03:19:36;3.28;;;1.20;;
69953;SDS011;57276;51.364;12.376;2023-04-24T03:25:42;3.40;;;1.38;;
69953;SDS011;57276;51.364;12.376;2023-04-24T03:31:46;3.13;;;1.30;;
69953;SDS011;57276;51.364;12.376;2023-04-24T03:37:47;4.25;;;1.30;;
69953;SDS011;57276;51.364;12.376;2023-04-24T03:44:09;3.20;;;1.20;;
69953;SDS011;57276;51.364;12.376;2023-04-24T03:50:11;3.05;;;1.10;;
69953;SDS011;57276;51.364;12.376;2023-04-24T03:56:14;3.00;;;1.17;;
69953;SDS011;57276;51.364;12.376;2023-04-24T04:02:16;3.20;;;1.20;;
69953;SDS011;57276;51.364;12.376;2023-04-24T04:08:18;3.25;;;1.23;;
69953;SDS011;57276;51.364;12.376;2023-04-24T04:14:19;3.43;;;1.20;;
69953;SDS011;57276;51.364;12.376;2023-04-24T04:20:22;3.95;;;1.27;;
69953;SDS011;57276;51.364;12.376;2023-04-24T04:26:23;4.45;;;1.35;;
69953;SDS011;57276;51.364;12.376;2023-04-24T04:32:35;3.00;;;1.20;;
69953;SDS011;57276;51.364;12.376;2023-04-24T04:38:38;3.55;;;1.25;;
69953;SDS011;57276;51.364;12.376;2023-04-24T04:44:50;4.63;;;1.30;;
69953;SDS011;57276;51.364;12.376;2023-04-24T04:50:55;3.22;;;1.10;;
69953;SDS011;57276;51.364;12.376;2023-04-24T04:56:58;6.15;;;1.20;;
69953;SDS011;57276;51.364;12.376;2023-04-24T05:03:00;3.90;;;1.13;;
69953;SDS011;57276;51.364;12.376;2023-04-24T05:09:20;3.05;;;1.15;;
69953;SDS011;57276;51.364;12.376;2023-04-24T05:15:29;3.93;;;1.30;;
69953;SDS011;57276;51.364;12.376;2023-04-24T05:21:31;4.10;;;1.10;;
69953;SDS011;57276;51.364;12.376;2023-04-24T05:27:34;3.90;;;1.30;;
69953;SDS011;57276;51.364;12.376;2023-04-24T05:33:38;3.43;;;1.20;;
69953;SDS011;57276;51.364;12.376;2023-04-24T05:39:40;3.22;;;1.50;;
69953;SDS011;57276;51.364;12.376;2023-04-24T05:45:43;3.40;;;1.50;;
69953;SDS011;57276;51.364;12.376;2023-04-24T05:51:44;5.28;;;1.60;;
69953;SDS011;57276;51.364;12.376;2023-04-24T05:57:46;4.93;;;1.42;;
69953;SDS011;57276;51.364;12.376;2023-04-24T06:03:48;4.23;;;1.60;;
69953;SDS011;57276;51.364;12.376;2023-04-24T06:09:50;3.10;;;1.48;;
69953;SDS011;57276;51.364;12.376;2023-04-24T06:15:52;3.70;;;1.30;;
69953;SDS011;57276;51.364;12.376;2023-04-24T06:22:02;4.80;;;1.45;;
69953;SDS011;57276;51.364;12.376;2023-04-24T06:28:05;4.15;;;1.40;;
69953;SDS011;57276;51.364;12.376;2023-04-24T06:34:06;3.20;;;1.30;;
69953;SDS011;57276;51.364;12.376;2023-04-24T06:40:08;5.38;;;1.50;;
69953;SDS011;57276;51.364;12.376;2023-04-24T06:46:09;3.73;;;1.40;;
69953;SDS011;57276;51.364;12.376;2023-04-24T06:52:11;4.13;;;1.33;;
69953;SDS011;57276;51.364;12.376;2023-04-24T06:58:12;5.43;;;1.48;;
69953;SDS011;57276;51.364;12.376;2023-04-24T07:04:14;4.93;;;1.30;;
69953;SDS011;57276;51.364;12.376;2023-04-24T07:10:17;3.97;;;1.30;;
69953;SDS011;57276;51.364;12.376;2023-04-24T07:16:19;3.50;;;1.17;;
69953;SDS011;57276;51.364;12.376;2023-04-24T07:22:20;6.95;;;1.40;;
69953;SDS011;57276;51.364;12.376;2023-04-24T07:28:22;4.18;;;1.20;;
69953;SDS011;57276;51.364;12.376;2023-04-24T07:34:23;3.53;;;1.30;;
69953;SDS011;57276;51.364;12.376;2023-04-24T07:40:25;5.15;;;1.20;;
69953;SDS011;57276;51.364;12.376;2023-04-24T07:46:26;3.10;;;1.13;;
69953;SDS011;57276;51.364;12.376;2023-04-24T07:52:31;5.68;;;1.10;;
69953;SDS011;57276;51.364;12.376;2023-04-24T07:58:33;3.40;;;1.20;;
69953;SDS011;57276;51.364;12.376;2023-04-24T08:04:34;8.17;;;1.20;;
69953;SDS011;57276;51.364;12.376;2023-04-24T08:10:36;4.47;;;1.00;;
69953;SDS011;57276;51.364;12.376;2023-04-24T08:16:37;2.70;;;1.07;;
69953;SDS011;57276;51.364;12.376;2023-04-24T08:22:39;5.03;;;0.98;;
69953;SDS011;57276;51.364;12.376;2023-04-24T08:28:41;2.42;;;0.80;;
69953;SDS011;57276;51.364;12.376;2023-04-24T08:34:43;4.10;;;0.90;;
69953;SDS011;57276;51.364;12.376;2023-04-24T08:40:44;2.42;;;0.73;;
69953;SDS011;57276;51.364;12.376;2023-04-24T08:46:49;3.27;;;0.70;;
69953;SDS011;57276;51.364;12.376;2023-04-24T08:52:52;2.90;;;0.75;;
69953;SDS011;57276;51.364;12.376;2023-04-24T08:58:56;2.45;;;0.75;;
69953;SDS011;57276;51.364;12.376;2023-04-24T09:04:58;2.13;;;0.67;;
69953;SDS011;57276;51.364;12.376;2023-04-24T09:10:59;2.70;;;0.80;;
69953;SDS011;57276;51.364;12.376;2023-04-24T09:17:03;2.90;;;0.90;;
69953;SDS011;57276;51.364;12.376;2023-04-24T09:23:05;5.43;;;0.90;;
69953;SDS011;57276;51.364;12.376;2023-04-24T09:29:06;2.67;;;0.80;;
69953;SDS011;57276;51.364;12.376;2023-04-24T09:35:10;4.20;;;0.90;;
69953;SDS011;57276;51.364;12.376;2023-04-24T09:41:13;4.32;;;0.90;;
69953;SDS011;57276;51.364;12.376;2023-04-24T09:47:15;3.20;;;0.83;;
69953;SDS011;57276;51.364;12.376;2023-04-24T09:53:17;2.13;;;0.60;;
69953;SDS011;57276;51.364;12.376;2023-04-24T09:59:24;2.53;;;0.80;;
69953;SDS011;57276;51.364;12.376;2023-04-24T10:05:30;2.87;;;1.00;;
69953;SDS011;57276;51.364;12.376;2023-04-24T10:11:32;2.80;;;1.10;;
69953;SDS011;57276;51.364;12.376;2023-04-24T10:17:34;2.60;;;0.90;;
69953;SDS011;57276;51.364;12.376;2023-04-24T10:23:35;3.55;;;1.10;;
69953;SDS011;57276;51.364;12.376;2023-04-24T10:29:37;2.90;;;0.80;;
69953;SDS011;57276;51.364;12.376;2023-04-24T10:35:41;3.47;;;1.00;;
69953;SDS011;57276;51.364;12.376;2023-04-24T10:41:44;3.22;;;1.10;;
69953;SDS011;57276;51.364;12.376;2023-04-24T10:47:53;3.07;;;1.17;;
69953;SDS011;57276;51.364;12.376;2023-04-24T10:53:55;4.85;;;0.95;;
69953;SDS011;57276;51.364;12.376;2023-04-24T11:06:18;3.60;;;0.77;;
69953;SDS011;57276;51.364;12.376;2023-04-24T11:12:29;2.70;;;1.02;;
69953;SDS011;57276;51.364;12.376;2023-04-24T11:18:37;2.77;;;1.00;;
69953;SDS011;57276;51.364;12.376;2023-04-24T11:30:54;3.72;;;1.10;;
69953;SDS011;57276;51.364;12.376;2023-04-24T11:36:55;3.47;;;1.10;;
69953;SDS011;57276;51.364;12.376;2023-04-24T11:42:59;2.80;;;0.88;;
69953;SDS011;57276;51.364;12.376;2023-04-24T11:49:01;2.70;;;1.20;;
69953;SDS011;57276;51.364;12.376;2023-04-24T11:55:03;3.17;;;1.20;;
69953;SDS011;57276;51.364;12.376;2023-04-24T12:01:05;4.70;;;1.10;;
69953;SDS011;57276;51.364;12.376;2023-04-24T12:07:06;2.90;;;1.10;;
69953;SDS011;57276;51.364;12.376;2023-04-24T12:13:09;2.63;;;1.00;;
69953;SDS011;57276;51.364;12.376;2023-04-24T12:19:17;2.90;;;1.20;;
69953;SDS011;57276;51.364;12.376;2023-04-24T12:25:18;3.10;;;1.15;;
69953;SDS011;57276;51.364;12.376;2023-04-24T12:31:20;4.70;;;1.30;;
69953;SDS011;57276;51.364;12.376;2023-04-24T12:37:22;4.20;;;1.30;;
69953;SDS011;57276;51.364;12.376;2023-04-24T12:43:24;5.90;;;1.52;;
69953;SDS011;57276;51.364;12.376;2023-04-24T12:49:26;3.70;;;1.30;;
69953;SDS011;57276;51.364;12.376;2023-04-24T12:55:28;3.00;;;1.30;;
69953;SDS011;57276;51.364;12.376;2023-04-24T13:01:29;3.30;;;1.20;;
69953;SDS011;57276;51.364;12.376;2023-04-24T13:07:30;3.93;;;1.40;;
69953;SDS011;57276;51.364;12.376;2023-04-24T13:13:32;3.55;;;1.40;;
69953;SDS011;57276;51.364;12.376;2023-04-24T13:19:37;3.37;;;1.40;;
69953;SDS011;57276;51.364;12.376;2023-04-24T13:25:39;5.25;;;1.50;;
69953;SDS011;57276;51.364;12.376;2023-04-24T13:31:40;3.05;;;1.20;;
69953;SDS011;57276;51.364;12.376;2023-04-24T13:37:42;3.57;;;1.83;;
69953;SDS011;57276;51.364;12.376;2023-04-24T13:43:43;2.88;;;1.45;;
69953;SDS011;57276;51.364;12.376;2023-04-24T13:49:45;3.30;;;1.47;;
69953;SDS011;57276;51.364;12.376;2023-04-24T13:55:47;3.03;;;1.33;;
69953;SDS011;57276;51.364;12.376;2023-04-24T14:01:50;3.42;;;1.40;;
69953;SDS011;57276;51.364;12.376;2023-04-24T14:07:52;3.07;;;1.30;;
69953;SDS011;57276;51.364;12.376;2023-04-24T14:13:54;3.10;;;1.10;;
69953;SDS011;57276;51.364;12.376;2023-04-24T14:19:57;4.43;;;0.80;;
69953;SDS011;57276;51.364;12.376;2023-04-24T14:26:01;5.22;;;1.00;;
69953;SDS011;57276;51.364;12.376;2023-04-24T14:32:02;4.88;;;1.30;;
69953;SDS011;57276;51.364;12.376;2023-04-24T14:38:04;2.77;;;0.97;;
69953;SDS011;57276;51.364;12.376;2023-04-24T14:44:05;4.95;;;1.00;;
69953;SDS011;57276;51.364;12.376;2023-04-24T14:50:07;2.73;;;0.70;;
69953;SDS011;57276;51.364;12.376;2023-04-24T14:56:09;1.45;;;0.43;;
69953;SDS011;57276;51.364;12.376;2023-04-24T15:02:11;2.00;;;0.70;;
69953;SDS011;57276;51.364;12.376;2023-04-24T15:08:17;2.87;;;0.70;;
69953;SDS011;57276;51.364;12.376;2023-04-24T15:14:19;2.95;;;0.60;;
69953;SDS011;57276;51.364;12.376;2023-04-24T15:20:21;1.97;;;0.50;;
69953;SDS011;57276;51.364;12.376;2023-04-24T15:26:22;1.33;;;0.35;;
69953;SDS011;57276;51.364;12.376;2023-04-24T15:32:24;1.77;;;0.70;;
69953;SDS011;57276;51.364;12.376;2023-04-24T15:38:26;3.13;;;0.60;;
69953;SDS011;57276;51.364;12.376;2023-04-24T15:44:27;2.00;;;0.55;;
69953;SDS011;57276;51.364;12.376;2023-04-24T15:50:29;1.90;;;0.70;;
69953;SDS011;57276;51.364;12.376;2023-04-24T15:56:30;2.85;;;0.50;;
69953;SDS011;57276;51.364;12.376;2023-04-24T16:02:32;2.38;;;0.50;;
69953;SDS011;57276;51.364;12.376;2023-04-24T16:08:34;3.30;;;0.50;;
69953;SDS011;57276;51.364;12.376;2023-04-24T16:14:36;1.63;;;0.50;;
69953;SDS011;57276;51.364;12.376;2023-04-24T16:20:38;1.87;;;0.50;;
69953;SDS011;57276;51.364;12.376;2023-04-24T16:26:40;2.20;;;0.60;;
69953;SDS011;57276;51.364;12.376;2023-04-24T16:32:41;2.53;;;0.40;;
69953;SDS011;57276;51.364;12.376;2023-04-24T16:38:43;1.83;;;0.57;;
69953;SDS011;57276;51.364;12.376;2023-04-24T16:44:45;1.92;;;0.50;;
69953;SDS011;57276;51.364;12.376;2023-04-24T16:50:47;2.87;;;0.63;;
69953;SDS011;57276;51.364;12.376;2023-04-24T16:56:48;1.90;;;0.50;;
69953;SDS011;57276;51.364;12.376;2023-04-24T17:02:50;1.80;;;0.50;;
69953;SDS011;57276;51.364;12.376;2023-04-24T17:08:52;1.60;;;0.50;;
69953;SDS011;57276;51.364;12.376;2023-04-24T17:14:53;1.80;;;0.60;;
69953;SDS011;57276;51.364;12.376;2023-04-24T17:20:56;2.27;;;0.70;;
69953;SDS011;57276;51.364;12.376;2023-04-24T17:26:57;2.72;;;0.70;;
69953;SDS011;57276;51.364;12.376;2023-04-24T17:33:14;2.10;;;0.60;;
69953;SDS011;57276;51.364;12.376;2023-04-24T17:39:16;2.60;;;0.80;;
69953;SDS011;57276;51.364;12.376;2023-04-24T17:45:17;2.20;;;0.77;;
69953;SDS011;57276;51.364;12.376;2023-04-24T17:51:19;2.10;;;0.60;;
69953;SDS011;57276;51.364;12.376;2023-04-24T17:57:20;3.08;;;0.73;;
69953;SDS011;57276;51.364;12.376;2023-04-24T18:03:22;2.20;;;0.70;;
69953;SDS011;57276;51.364;12.376;2023-04-24T18:09:24;2.73;;;0.93;;
69953;SDS011;57276;51.364;12.376;2023-04-24T18:15:25;2.65;;;0.93;;
69953;SDS011;57276;51.364;12.376;2023-04-24T18:21:27;3.07;;;0.90;;
69953;SDS011;57276;51.364;12.376;2023-04-24T18:27:29;2.80;;;1.00;;
69953;SDS011;57276;51.364;12.376;2023-04-24T18:33:31;2.47;;;0.80;;
69953;SDS011;57276;51.364;12.376;2023-04-24T18:39:33;6.00;;;1.00;;
69953;SDS011;57276;51.364;12.376;2023-04-24T18:45:34;2.55;;;0.88;;
69953;SDS011;57276;51.364;12.376;2023-04-24T18:51:36;3.50;;;1.00;;
69953;SDS011;57276;51.364;12.376;2023-04-24T18:57:53;4.00;;;1.17;;
69953;SDS011;57276;51.364;12.376;2023-04-24T19:03:55;4.65;;;1.70;;
69953;SDS011;57276;51.364;12.376;2023-04-24T19:09:57;7.37;;;1.80;;
69953;SDS011;57276;51.364;12.376;2023-04-24T19:15:59;4.57;;;2.30;;
69953;SDS011;57276;51.364;12.376;2023-04-24T19:22:01;5.57;;;2.27;;
69953;SDS011;57276;51.364;12.376;2023-04-24T19:28:03;4.63;;;2.17;;
69953;SDS011;57276;51.364;12.376;2023-04-24T19:34:05;5.22;;;2.22;;
69953;SDS011;57276;51.364;12.376;2023-04-24T19:40:07;5.13;;;2.17;;
69953;SDS011;57276;51.364;12.376;2023-04-24T19:46:09;5.40;;;2.10;;
69953;SDS011;57276;51.364;12.376;2023-04-24T19:52:11;6.00;;;2.40;;
69953;SDS011;57276;51.364;12.376;2023-04-24T19:58:13;5.07;;;2.38;;
69953;SDS011;57276;51.364;12.376;2023-04-24T20:04:14;6.40;;;2.33;;
69953;SDS011;57276;51.364;12.376;2023-04-24T20:10:16;6.07;;;2.20;;
69953;SDS011;57276;51.364;12.376;2023-04-24T20:16:17;7.00;;;2.40;;
69953;SDS011;57276;51.364;12.376;2023-04-24T20:22:19;5.50;;;2.57;;
69953;SDS011;57276;51.364;12.376;2023-04-24T20:28:20;5.95;;;2.53;;
69953;SDS011;57276;51.364;12.376;2023-04-24T20:34:22;5.50;;;2.58;;
69953;SDS011;57276;51.364;12.376;2023-04-24T20:40:23;7.47;;;2.73;;
69953;SDS011;57276;51.364;12.376;2023-04-24T20:46:25;5.50;;;2.72;;
69953;SDS011;57276;51.364;12.376;2023-04-24T20:52:27;7.27;;;2.60;;
69953;SDS011;57276;51.364;12.376;2023-04-24T20:58:29;8.20;;;2.58;;
69953;SDS011;57276;51.364;12.376;2023-04-24T21:04:30;5.32;;;2.53;;
69953;SDS011;57276;51.364;12.376;2023-04-24T21:10:35;5.63;;;2.30;;
69953;SDS011;57276;51.364;12.376;2023-04-24T21:16:36;5.40;;;2.53;;
69953;SDS011;57276;51.364;12.376;2023-04-24T21:22:38;6.07;;;2.67;;
69953;SDS011;57276;51.364;12.376;2023-04-24T21:28:40;6.80;;;2.70;;
69953;SDS011;57276;51.364;12.376;2023-04-24T21:34:41;5.32;;;2.50;;
69953;SDS011;57276;51.364;12.376;2023-04-24T21:40:43;7.33;;;2.80;;
69953;SDS011;57276;51.364;12.376;2023-04-24T21:46:44;6.70;;;2.88;;
69953;SDS011;57276;51.364;12.376;2023-04-24T21:52:46;5.60;;;2.40;;
69953;SDS011;57276;51.364;12.376;2023-04-24T21:58:47;5.43;;;2.50;;
69953;SDS011;57276;51.364;12.376;2023-04-24T22:04:49;5.45;;;2.42;;
69953;SDS011;57276;51.364;12.376;2023-04-24T22:10:50;7.07;;;2.27;;
69953;SDS011;57276;51.364;12.376;2023-04-24T22:16:53;6.78;;;2.50;;
69953;SDS011;57276;51.364;12.376;2023-04-24T22:22:57;5.60;;;2.27;;
69953;SDS011;57276;51.364;12.376;2023-04-24T22:28:58;5.38;;;2.13;;
69953;SDS011;57276;51.364;12.376;2023-04-24T22:35:00;6.47;;;2.75;;
69953;SDS011;57276;51.364;12.376;2023-04-24T22:41:01;5.90;;;2.73;;
69953;SDS011;57276;51.364;12.376;2023-04-24T22:47:03;6.78;;;2.63;;
69953;SDS011;57276;51.364;12.376;2023-04-24T22:53:08;6.67;;;2.80;;
69953;SDS011;57276;51.364;12.376;2023-04-24T22:59:09;5.60;;;2.53;;
69953;SDS011;57276;51.364;12.376;2023-04-24T23:05:11;5.50;;;2.95;;
69953;SDS011;57276;51.364;12.376;2023-04-24T23:11:12;5.73;;;2.67;;
69953;SDS011;57276;51.364;12.376;2023-04-24T23:17:14;7.72;;;2.80;;
69953;SDS011;57276;51.364;12.376;2023-04-24T23:23:15;7.80;;;3.10;;
69953;SDS011;57276;51.364;12.376;2023-04-24T23:29:17;6.43;;;3.17;;
69953;SDS011;57276;51.364;12.376;2023-04-24T23:35:18;6.53;;;3.20;;
69953;SDS011;57276;51.364;12.376;2023-04-24T23:41:20;7.93;;;3.60;;
69953;SDS011;57276;51.364;12.376;2023-04-24T23:47:21;7.05;;;3.10;;
69953;SDS011;57276;51.364;12.376;2023-04-24T23:53:23;6.50;;;3.00;;
69953;SDS011;57276;51.364;12.376;2023-04-24T23:59:24;7.20;;;3.05;;
